sensor_id;sensor_type;location;lat;lon;timestamp;P1;durP1;ratioP1;P2;durP2;ratioP2
53287;SDS011;39172;45.550;12.072;2022-08-30T00:05:08;4.25;;;2.40;;
53287;SDS011;39172;45.550;12.072;2022-08-30T00:11:10;2.95;;;2.45;;
53287;SDS011;39172;45.550;12.072;2022-08-30T00:17:12;3.15;;;2.45;;
53287;SDS011;39172;45.550;12.072;2022-08-30T00:23:13;3.88;;;2.55;;
53287;SDS011;39172;45.550;12.072;2022-08-30T00:29:14;3.25;;;2.92;;
53287;SDS011;39172;45.550;12.072;2022-08-30T00:35:16;2.50;;;2.30;;
53287;SDS011;39172;45.550;12.072;2022-08-30T00:41:18;2.55;;;2.30;;
53287;SDS011;39172;45.550;12.072;2022-08-30T00:47:19;4.18;;;2.60;;
53287;SDS011;39172;45.550;12.072;2022-08-30T00:53:21;2.95;;;2.40;;
53287;SDS011;39172;45.550;12.072;2022-08-30T00:59:23;3.05;;;2.70;;
53287;SDS011;39172;45.550;12.072;2022-08-30T01:05:25;3.20;;;2.55;;
53287;SDS011;39172;45.550;12.072;2022-08-30T01:11:26;3.40;;;2.65;;
53287;SDS011;39172;45.550;12.072;2022-08-30T01:17:27;3.88;;;2.60;;
53287;SDS011;39172;45.550;12.072;2022-08-30T01:23:29;3.30;;;2.80;;
53287;SDS011;39172;45.550;12.072;2022-08-30T01:29:31;3.10;;;2.80;;
53287;SDS011;39172;45.550;12.072;2022-08-30T01:35:51;2.60;;;2.10;;
53287;SDS011;39172;45.550;12.072;2022-08-30T01:41:53;2.17;;;1.80;;
53287;SDS011;39172;45.550;12.072;2022-08-30T01:47:54;1.50;;;1.40;;
53287;SDS011;39172;45.550;12.072;2022-08-30T01:53:56;2.10;;;1.90;;
53287;SDS011;39172;45.550;12.072;2022-08-30T01:59:57;1.83;;;1.67;;
53287;SDS011;39172;45.550;12.072;2022-08-30T02:06:01;1.85;;;1.65;;
53287;SDS011;39172;45.550;12.072;2022-08-30T02:12:02;1.60;;;1.50;;
53287;SDS011;39172;45.550;12.072;2022-08-30T02:18:05;2.00;;;1.80;;
53287;SDS011;39172;45.550;12.072;2022-08-30T02:24:06;2.15;;;1.95;;
53287;SDS011;39172;45.550;12.072;2022-08-30T02:30:08;2.28;;;1.77;;
53287;SDS011;39172;45.550;12.072;2022-08-30T02:36:09;2.10;;;1.90;;
53287;SDS011;39172;45.550;12.072;2022-08-30T02:42:10;2.20;;;1.95;;
53287;SDS011;39172;45.550;12.072;2022-08-30T02:48:11;1.95;;;1.60;;
53287;SDS011;39172;45.550;12.072;2022-08-30T02:54:12;2.20;;;1.98;;
53287;SDS011;39172;45.550;12.072;2022-08-30T03:00:19;1.95;;;1.67;;
53287;SDS011;39172;45.550;12.072;2022-08-30T03:06:20;2.00;;;1.80;;
53287;SDS011;39172;45.550;12.072;2022-08-30T03:12:21;2.10;;;1.48;;
53287;SDS011;39172;45.550;12.072;2022-08-30T03:18:22;3.70;;;2.50;;
53287;SDS011;39172;45.550;12.072;2022-08-30T03:24:24;2.60;;;2.40;;
53287;SDS011;39172;45.550;12.072;2022-08-30T03:30:25;2.45;;;1.90;;
53287;SDS011;39172;45.550;12.072;2022-08-30T03:36:46;1.88;;;1.65;;
53287;SDS011;39172;45.550;12.072;2022-08-30T03:42:49;1.30;;;1.10;;
53287;SDS011;39172;45.550;12.072;2022-08-30T03:48:50;2.88;;;1.50;;
53287;SDS011;39172;45.550;12.072;2022-08-30T03:54:51;1.30;;;1.20;;
53287;SDS011;39172;45.550;12.072;2022-08-30T04:00:52;2.10;;;1.90;;
53287;SDS011;39172;45.550;12.072;2022-08-30T04:07:02;2.97;;;2.67;;
53287;SDS011;39172;45.550;12.072;2022-08-30T04:13:03;4.47;;;3.70;;
53287;SDS011;39172;45.550;12.072;2022-08-30T04:19:05;2.03;;;1.83;;
53287;SDS011;39172;45.550;12.072;2022-08-30T04:25:06;4.00;;;3.40;;
53287;SDS011;39172;45.550;12.072;2022-08-30T04:31:08;2.67;;;2.17;;
53287;SDS011;39172;45.550;12.072;2022-08-30T04:37:09;2.30;;;2.03;;
53287;SDS011;39172;45.550;12.072;2022-08-30T04:43:10;3.47;;;2.58;;
53287;SDS011;39172;45.550;12.072;2022-08-30T04:49:12;2.95;;;2.50;;
53287;SDS011;39172;45.550;12.072;2022-08-30T04:55:13;3.67;;;3.10;;
53287;SDS011;39172;45.550;12.072;2022-08-30T05:01:19;4.57;;;4.07;;
53287;SDS011;39172;45.550;12.072;2022-08-30T05:07:20;4.95;;;4.00;;
53287;SDS011;39172;45.550;12.072;2022-08-30T05:13:21;6.97;;;4.95;;
53287;SDS011;39172;45.550;12.072;2022-08-30T05:19:22;5.13;;;4.47;;
53287;SDS011;39172;45.550;12.072;2022-08-30T05:25:25;4.88;;;3.92;;
53287;SDS011;39172;45.550;12.072;2022-08-30T05:31:27;3.53;;;2.95;;
53287;SDS011;39172;45.550;12.072;2022-08-30T05:37:29;3.15;;;2.83;;
53287;SDS011;39172;45.550;12.072;2022-08-30T05:43:30;3.38;;;3.00;;
53287;SDS011;39172;45.550;12.072;2022-08-30T05:49:31;3.92;;;3.40;;
53287;SDS011;39172;45.550;12.072;2022-08-30T05:55:32;4.00;;;3.40;;
53287;SDS011;39172;45.550;12.072;2022-08-30T06:01:36;4.32;;;3.55;;
53287;SDS011;39172;45.550;12.072;2022-08-30T06:07:38;4.22;;;3.38;;
53287;SDS011;39172;45.550;12.072;2022-08-30T06:13:40;4.55;;;3.35;;
53287;SDS011;39172;45.550;12.072;2022-08-30T06:19:41;6.22;;;3.58;;
53287;SDS011;39172;45.550;12.072;2022-08-30T06:25:43;3.65;;;3.10;;
53287;SDS011;39172;45.550;12.072;2022-08-30T06:31:44;7.07;;;5.20;;
53287;SDS011;39172;45.550;12.072;2022-08-30T06:37:45;4.03;;;2.83;;
53287;SDS011;39172;45.550;12.072;2022-08-30T06:43:46;4.53;;;3.17;;
53287;SDS011;39172;45.550;12.072;2022-08-30T06:49:47;4.75;;;3.67;;
53287;SDS011;39172;45.550;12.072;2022-08-30T06:55:58;3.10;;;2.80;;
53287;SDS011;39172;45.550;12.072;2022-08-30T07:02:00;2.70;;;2.20;;
53287;SDS011;39172;45.550;12.072;2022-08-30T07:08:01;2.25;;;1.67;;
53287;SDS011;39172;45.550;12.072;2022-08-30T07:14:02;3.63;;;2.88;;
53287;SDS011;39172;45.550;12.072;2022-08-30T07:20:04;2.78;;;2.30;;
53287;SDS011;39172;45.550;12.072;2022-08-30T07:26:06;4.13;;;3.17;;
53287;SDS011;39172;45.550;12.072;2022-08-30T07:32:07;2.67;;;2.47;;
53287;SDS011;39172;45.550;12.072;2022-08-30T07:38:11;4.38;;;3.42;;
53287;SDS011;39172;45.550;12.072;2022-08-30T07:44:13;2.67;;;2.40;;
53287;SDS011;39172;45.550;12.072;2022-08-30T07:50:17;2.47;;;2.25;;
53287;SDS011;39172;45.550;12.072;2022-08-30T07:56:18;3.75;;;3.00;;
53287;SDS011;39172;45.550;12.072;2022-08-30T08:02:19;3.75;;;3.30;;
53287;SDS011;39172;45.550;12.072;2022-08-30T08:08:21;3.30;;;2.25;;
53287;SDS011;39172;45.550;12.072;2022-08-30T08:14:22;2.92;;;2.70;;
53287;SDS011;39172;45.550;12.072;2022-08-30T08:20:23;2.67;;;2.38;;
53287;SDS011;39172;45.550;12.072;2022-08-30T08:26:26;3.17;;;2.70;;
53287;SDS011;39172;45.550;12.072;2022-08-30T08:32:27;3.47;;;2.97;;
53287;SDS011;39172;45.550;12.072;2022-08-30T08:38:28;3.15;;;2.70;;
53287;SDS011;39172;45.550;12.072;2022-08-30T08:50:30;2.88;;;2.50;;
53287;SDS011;39172;45.550;12.072;2022-08-30T08:56:31;3.50;;;3.17;;
53287;SDS011;39172;45.550;12.072;2022-08-30T09:02:36;3.40;;;3.10;;
53287;SDS011;39172;45.550;12.072;2022-08-30T09:08:39;4.40;;;2.95;;
53287;SDS011;39172;45.550;12.072;2022-08-30T09:14:42;3.35;;;2.60;;
53287;SDS011;39172;45.550;12.072;2022-08-30T09:20:47;2.70;;;2.45;;
53287;SDS011;39172;45.550;12.072;2022-08-30T09:26:48;2.60;;;2.20;;
53287;SDS011;39172;45.550;12.072;2022-08-30T09:32:53;2.45;;;2.00;;
53287;SDS011;39172;45.550;12.072;2022-08-30T09:39:03;2.22;;;2.00;;
53287;SDS011;39172;45.550;12.072;2022-08-30T09:45:09;2.00;;;1.80;;
53287;SDS011;39172;45.550;12.072;2022-08-30T10:10:02;1.90;;;1.80;;
53287;SDS011;39172;45.550;12.072;2022-08-30T10:16:14;2.10;;;1.90;;
53287;SDS011;39172;45.550;12.072;2022-08-30T10:22:23;2.67;;;2.10;;
53287;SDS011;39172;45.550;12.072;2022-08-30T10:28:29;1.70;;;1.60;;
53287;SDS011;39172;45.550;12.072;2022-08-30T10:34:36;2.00;;;1.80;;
53287;SDS011;39172;45.550;12.072;2022-08-30T10:40:39;2.72;;;1.90;;
53287;SDS011;39172;45.550;12.072;2022-08-30T10:53:11;2.45;;;1.92;;
53287;SDS011;39172;45.550;12.072;2022-08-30T10:59:18;2.63;;;1.60;;
53287;SDS011;39172;45.550;12.072;2022-08-30T11:18:03;1.70;;;1.50;;
53287;SDS011;39172;45.550;12.072;2022-08-30T11:24:15;2.97;;;1.80;;
53287;SDS011;39172;45.550;12.072;2022-08-30T11:42:35;2.35;;;1.88;;
53287;SDS011;39172;45.550;12.072;2022-08-30T11:48:45;1.80;;;1.70;;
53287;SDS011;39172;45.550;12.072;2022-08-30T11:54:54;2.30;;;1.88;;
53287;SDS011;39172;45.550;12.072;2022-08-30T12:01:13;1.80;;;1.63;;
53287;SDS011;39172;45.550;12.072;2022-08-30T12:19:45;2.25;;;2.00;;
53287;SDS011;39172;45.550;12.072;2022-08-30T12:25:47;2.20;;;2.00;;
53287;SDS011;39172;45.550;12.072;2022-08-30T12:31:58;2.10;;;1.90;;
53287;SDS011;39172;45.550;12.072;2022-08-30T12:38:01;5.40;;;2.40;;
53287;SDS011;39172;45.550;12.072;2022-08-30T12:44:03;2.45;;;2.20;;
53287;SDS011;39172;45.550;12.072;2022-08-30T12:50:07;2.80;;;2.08;;
53287;SDS011;39172;45.550;12.072;2022-08-30T12:56:10;2.28;;;2.08;;
53287;SDS011;39172;45.550;12.072;2022-08-30T13:02:21;2.22;;;1.92;;
53287;SDS011;39172;45.550;12.072;2022-08-30T13:14:40;3.20;;;2.40;;
53287;SDS011;39172;45.550;12.072;2022-08-30T13:20:42;3.35;;;2.20;;
53287;SDS011;39172;45.550;12.072;2022-08-30T13:26:45;3.13;;;2.30;;
53287;SDS011;39172;45.550;12.072;2022-08-30T13:32:48;3.35;;;2.20;;
53287;SDS011;39172;45.550;12.072;2022-08-30T13:38:49;2.95;;;2.20;;
53287;SDS011;39172;45.550;12.072;2022-08-30T13:44:50;3.13;;;2.50;;
53287;SDS011;39172;45.550;12.072;2022-08-30T13:50:53;2.22;;;2.03;;
53287;SDS011;39172;45.550;12.072;2022-08-30T13:56:55;2.17;;;1.98;;
53287;SDS011;39172;45.550;12.072;2022-08-30T14:02:56;2.30;;;2.00;;
53287;SDS011;39172;45.550;12.072;2022-08-30T14:08:57;2.53;;;2.05;;
53287;SDS011;39172;45.550;12.072;2022-08-30T14:14:58;3.28;;;2.35;;
53287;SDS011;39172;45.550;12.072;2022-08-30T14:21:00;2.30;;;2.10;;
53287;SDS011;39172;45.550;12.072;2022-08-30T14:27:01;2.20;;;2.00;;
53287;SDS011;39172;45.550;12.072;2022-08-30T14:33:03;2.88;;;2.15;;
53287;SDS011;39172;45.550;12.072;2022-08-30T14:39:05;2.00;;;1.67;;
53287;SDS011;39172;45.550;12.072;2022-08-30T14:45:07;2.05;;;1.70;;
53287;SDS011;39172;45.550;12.072;2022-08-30T14:51:14;2.08;;;1.88;;
53287;SDS011;39172;45.550;12.072;2022-08-30T15:03:17;1.83;;;1.70;;
53287;SDS011;39172;45.550;12.072;2022-08-30T15:09:19;1.67;;;1.58;;
53287;SDS011;39172;45.550;12.072;2022-08-30T15:15:22;2.15;;;1.80;;
53287;SDS011;39172;45.550;12.072;2022-08-30T15:21:27;2.58;;;1.90;;
53287;SDS011;39172;45.550;12.072;2022-08-30T15:27:28;3.78;;;1.80;;
53287;SDS011;39172;45.550;12.072;2022-08-30T15:33:29;2.50;;;2.10;;
53287;SDS011;39172;45.550;12.072;2022-08-30T15:39:30;2.20;;;2.00;;
53287;SDS011;39172;45.550;12.072;2022-08-30T15:45:31;2.72;;;2.10;;
53287;SDS011;39172;45.550;12.072;2022-08-30T15:51:33;2.22;;;1.83;;
53287;SDS011;39172;45.550;12.072;2022-08-30T15:57:35;2.70;;;2.00;;
53287;SDS011;39172;45.550;12.072;2022-08-30T16:03:37;1.80;;;1.60;;
53287;SDS011;39172;45.550;12.072;2022-08-30T16:09:42;2.20;;;1.70;;
53287;SDS011;39172;45.550;12.072;2022-08-30T16:15:43;2.67;;;2.30;;
53287;SDS011;39172;45.550;12.072;2022-08-30T16:21:44;2.40;;;2.20;;
53287;SDS011;39172;45.550;12.072;2022-08-30T16:27:49;2.60;;;1.80;;
53287;SDS011;39172;45.550;12.072;2022-08-30T16:33:53;2.20;;;1.98;;
53287;SDS011;39172;45.550;12.072;2022-08-30T16:39:54;2.30;;;2.10;;
53287;SDS011;39172;45.550;12.072;2022-08-30T16:45:57;2.45;;;2.00;;
53287;SDS011;39172;45.550;12.072;2022-08-30T16:51:59;2.08;;;1.88;;
53287;SDS011;39172;45.550;12.072;2022-08-30T16:58:03;2.00;;;1.80;;
53287;SDS011;39172;45.550;12.072;2022-08-30T17:04:05;2.38;;;1.80;;
53287;SDS011;39172;45.550;12.072;2022-08-30T17:10:07;2.10;;;1.75;;
53287;SDS011;39172;45.550;12.072;2022-08-30T17:16:08;1.98;;;1.65;;
53287;SDS011;39172;45.550;12.072;2022-08-30T17:22:11;1.50;;;1.35;;
53287;SDS011;39172;45.550;12.072;2022-08-30T17:28:13;1.63;;;1.30;;
53287;SDS011;39172;45.550;12.072;2022-08-30T17:34:13;1.48;;;1.35;;
53287;SDS011;39172;45.550;12.072;2022-08-30T17:40:16;1.60;;;1.50;;
53287;SDS011;39172;45.550;12.072;2022-08-30T17:46:17;1.80;;;1.70;;
53287;SDS011;39172;45.550;12.072;2022-08-30T17:52:20;1.50;;;1.27;;
53287;SDS011;39172;45.550;12.072;2022-08-30T17:58:21;3.47;;;1.95;;
53287;SDS011;39172;45.550;12.072;2022-08-30T18:04:22;2.88;;;2.50;;
53287;SDS011;39172;45.550;12.072;2022-08-30T18:10:23;3.05;;;2.65;;
53287;SDS011;39172;45.550;12.072;2022-08-30T18:16:24;5.53;;;3.20;;
53287;SDS011;39172;45.550;12.072;2022-08-30T18:22:25;6.00;;;2.80;;
53287;SDS011;39172;45.550;12.072;2022-08-30T18:28:26;4.45;;;2.15;;
53287;SDS011;39172;45.550;12.072;2022-08-30T18:34:28;3.25;;;1.60;;
53287;SDS011;39172;45.550;12.072;2022-08-30T18:40:29;2.72;;;1.45;;
53287;SDS011;39172;45.550;12.072;2022-08-30T18:46:30;2.13;;;1.30;;
53287;SDS011;39172;45.550;12.072;2022-08-30T18:52:31;3.88;;;1.10;;
53287;SDS011;39172;45.550;12.072;2022-08-30T18:58:32;1.80;;;1.00;;
53287;SDS011;39172;45.550;12.072;2022-08-30T19:04:33;2.15;;;1.05;;
53287;SDS011;39172;45.550;12.072;2022-08-30T19:10:34;2.33;;;1.02;;
53287;SDS011;39172;45.550;12.072;2022-08-30T19:16:35;3.28;;;1.08;;
53287;SDS011;39172;45.550;12.072;2022-08-30T19:22:37;1.10;;;0.80;;
53287;SDS011;39172;45.550;12.072;2022-08-30T19:28:38;1.23;;;0.90;;
53287;SDS011;39172;45.550;12.072;2022-08-30T19:34:40;1.52;;;0.98;;
53287;SDS011;39172;45.550;12.072;2022-08-30T19:40:41;1.02;;;0.73;;
53287;SDS011;39172;45.550;12.072;2022-08-30T19:46:43;1.00;;;0.80;;
53287;SDS011;39172;45.550;12.072;2022-08-30T19:52:44;1.02;;;0.77;;
53287;SDS011;39172;45.550;12.072;2022-08-30T19:58:45;0.88;;;0.70;;
53287;SDS011;39172;45.550;12.072;2022-08-30T20:04:46;1.35;;;0.70;;
53287;SDS011;39172;45.550;12.072;2022-08-30T20:10:48;1.17;;;0.82;;
53287;SDS011;39172;45.550;12.072;2022-08-30T20:16:49;1.27;;;0.82;;
53287;SDS011;39172;45.550;12.072;2022-08-30T20:22:51;0.90;;;0.80;;
53287;SDS011;39172;45.550;12.072;2022-08-30T20:28:52;2.28;;;0.80;;
53287;SDS011;39172;45.550;12.072;2022-08-30T20:34:53;1.30;;;0.80;;
53287;SDS011;39172;45.550;12.072;2022-08-30T20:40:55;0.70;;;0.70;;
53287;SDS011;39172;45.550;12.072;2022-08-30T20:46:57;2.10;;;0.75;;
53287;SDS011;39172;45.550;12.072;2022-08-30T20:52:58;1.10;;;0.80;;
53287;SDS011;39172;45.550;12.072;2022-08-30T20:59:00;2.42;;;0.80;;
53287;SDS011;39172;45.550;12.072;2022-08-30T21:05:03;1.50;;;0.80;;
53287;SDS011;39172;45.550;12.072;2022-08-30T21:11:05;2.72;;;0.90;;
53287;SDS011;39172;45.550;12.072;2022-08-30T21:17:06;2.47;;;1.10;;
53287;SDS011;39172;45.550;12.072;2022-08-30T21:23:07;1.52;;;0.93;;
53287;SDS011;39172;45.550;12.072;2022-08-30T21:29:08;1.10;;;0.80;;
53287;SDS011;39172;45.550;12.072;2022-08-30T21:35:11;0.90;;;0.70;;
53287;SDS011;39172;45.550;12.072;2022-08-30T21:41:31;1.67;;;0.80;;
53287;SDS011;39172;45.550;12.072;2022-08-30T21:47:33;1.40;;;0.90;;
53287;SDS011;39172;45.550;12.072;2022-08-30T21:53:35;1.92;;;0.80;;
53287;SDS011;39172;45.550;12.072;2022-08-30T21:59:36;1.00;;;0.60;;
53287;SDS011;39172;45.550;12.072;2022-08-30T22:05:38;1.23;;;0.73;;
53287;SDS011;39172;45.550;12.072;2022-08-30T22:11:40;1.10;;;0.68;;
53287;SDS011;39172;45.550;12.072;2022-08-30T22:17:42;1.05;;;0.65;;
53287;SDS011;39172;45.550;12.072;2022-08-30T22:23:42;0.93;;;0.80;;
53287;SDS011;39172;45.550;12.072;2022-08-30T22:29:44;1.10;;;0.60;;
53287;SDS011;39172;45.550;12.072;2022-08-30T22:35:46;3.38;;;0.77;;
53287;SDS011;39172;45.550;12.072;2022-08-30T22:41:47;1.05;;;0.68;;
53287;SDS011;39172;45.550;12.072;2022-08-30T22:47:48;1.15;;;0.65;;
53287;SDS011;39172;45.550;12.072;2022-08-30T22:53:49;0.98;;;0.65;;
53287;SDS011;39172;45.550;12.072;2022-08-30T22:59:51;0.90;;;0.70;;
53287;SDS011;39172;45.550;12.072;2022-08-30T23:05:52;1.67;;;0.80;;
53287;SDS011;39172;45.550;12.072;2022-08-30T23:11:53;1.27;;;0.90;;
53287;SDS011;39172;45.550;12.072;2022-08-30T23:17:55;2.67;;;1.20;;
53287;SDS011;39172;45.550;12.072;2022-08-30T23:23:56;1.48;;;1.10;;
53287;SDS011;39172;45.550;12.072;2022-08-30T23:30:16;2.08;;;1.30;;
53287;SDS011;39172;45.550;12.072;2022-08-30T23:36:36;5.53;;;1.50;;
53287;SDS011;39172;45.550;12.072;2022-08-30T23:42:55;3.10;;;1.27;;
53287;SDS011;39172;45.550;12.072;2022-08-30T23:49:15;2.60;;;1.73;;
53287;SDS011;39172;45.550;12.072;2022-08-30T23:55:36;4.22;;;1.98;;
